Auburndale, Florida
Current Conditions -  °F | °C
As of 11:53 AM on Saturday 20 Dec 2014 (Local Time) from KGIF Reporting Station
Clear Clear  
Wind Chill: 75°   Ceiling: Unl
Heat Index: 75°   Visibility: 10mi
Dew Point: 58°   Wind: 7mph
Humidity: 55%   Direction: 160°SSE
Pressure: 30.1"   Gusts: NA
Location:  28.06°N, 81.78°W
Report Text: KGIF 201653Z AUTO 16006KT 10SM CLR 24/14 A3010 RMK AO2 SLP191 T02390144
Loading
Personal Weather Stations






























Interactive Weather Map New forecast layout! Learn more

10-Day Weather Forecast

Advertisements
Track Severe Weather on mobile